Weather History for Storm Lake, IA

Change the Weather History Date:

Monday, November 24, 2014

  Actual Average Record
Temperature  
Mean Temperature 24 °F -  
Max Temperature 28 °F 40 °F 62 °F (2011)
Min Temperature 17 °F 25 °F 5 °F (2013)
Degree Days  
Heating Degree Days 42    
Moisture  
Dew Point 15 °F    
Average Humidity 74    
Maximum Humidity 80    
Minimum Humidity 68    
Precipitation  
Precipitation 0.00 in - - ()
Sea Level Pressure  
Sea Level Pressure 29.68 in    
Wind  
Wind Speed 25 mph (NW)    
Max Wind Speed 30 mph    
Max Gust Speed 40 mph    
Visibility 10 miles    
Events Snow    
Averages and records for this station are not official NWS values.
T = Trace of Precipitation, MM = Missing Value Source: NWS Daily Summary

Daily Weather History Graph

Daily Weather History Graph

Search for Another Location

Airport:

Trip Planner

Search our weather history database for the weather conditions in past years. The results will help you decide how hot, cold, wet, or windy it might be!

Date:

Astronomy

Nov. 24, 2014 Rise Set
Actual Time 7:23 AM CST 4:51 PM CST
Civil Twilight 6:52 AM CST 5:22 PM CST
Nautical Twilight 6:17 AM CST 5:57 PM CST
Astronomical Twilight 5:43 AM CST 6:31 PM CST
Moon 9:16 AM CST (11/24) 7:14 PM CST (11/24)
Length of Visible Light 10h 30m
Length of Day
9h 28m
Waxing Crescent, 6% of the Moon is Illuminated
Nov 24
Waxing Crescent
Nov 29
First Quarter
Dec 6
Full
Dec 14
Last Quarter
Dec 21
New

Hourly Weather History & Observations

Time (CST) Temp. Windchill Dew Point Humidity Pressure Visibility Wind Dir Wind Speed Gust Speed Precip Events Conditions
12:15 AM 28.4 °F 13.0 °F 23.0 °F 80% 29.45 in 10.0 mi NW 28.8 mph 35.7 mph N/A   Overcast
12:35 AM 26.6 °F 11.7 °F 21.2 °F 80% 29.46 in 10.0 mi NW 24.2 mph 38.0 mph N/A   Overcast
12:55 AM 26.6 °F 11.7 °F 21.2 °F 80% 29.45 in 10.0 mi NW 24.2 mph 32.2 mph N/A   Overcast
1:15 AM 26.6 °F 11.4 °F 21.2 °F 80% 29.44 in 10.0 mi NW 25.3 mph 35.7 mph N/A   Overcast
1:35 AM 26.6 °F 10.8 °F 19.4 °F 74% 29.45 in 10.0 mi NW 27.6 mph 35.7 mph N/A   Overcast
1:55 AM 24.8 °F 7.9 °F 19.4 °F 80% 29.45 in 10.0 mi NW 29.9 mph 40.3 mph N/A   Overcast
2:15 AM 24.8 °F 9.3 °F 19.4 °F 80% 29.45 in 10.0 mi NW 24.2 mph 33.4 mph N/A   Overcast
2:35 AM 24.8 °F 10.3 °F 19.4 °F 80% 29.46 in 10.0 mi NW 20.7 mph 34.5 mph N/A   Overcast
2:55 AM 24.8 °F 9.3 °F 19.4 °F 80% 29.46 in 10.0 mi NW 24.2 mph 32.2 mph N/A   Overcast
3:15 AM 24.8 °F 9.3 °F 19.4 °F 80% 29.47 in 10.0 mi NW 24.2 mph 31.1 mph N/A   Overcast
3:35 AM 24.8 °F 8.7 °F 17.6 °F 74% 29.47 in 10.0 mi NW 26.5 mph 33.4 mph N/A   Overcast
3:55 AM 24.8 °F 8.7 °F 17.6 °F 74% 29.47 in 10.0 mi NW 26.5 mph 34.5 mph N/A   Overcast
4:15 AM 23.0 °F 5.7 °F 17.6 °F 80% 29.47 in 10.0 mi NW 28.8 mph 35.7 mph N/A   Overcast
4:35 AM 21.2 °F 3.5 °F 15.8 °F 80% 29.47 in 10.0 mi NW 27.6 mph - N/A   Overcast
5:15 AM 21.2 °F 4.2 °F 14.0 °F 74% 29.49 in 10.0 mi NW 25.3 mph 33.4 mph N/A   Overcast
5:35 AM 21.2 °F 3.9 °F 14.0 °F 74% 29.49 in 10.0 mi NW 26.5 mph 33.4 mph N/A   Overcast
5:55 AM 21.2 °F 3.9 °F 14.0 °F 74% 29.50 in 10.0 mi NW 26.5 mph 33.4 mph N/A   Overcast
6:15 AM 21.2 °F 4.9 °F 14.0 °F 74% 29.51 in 10.0 mi NW 23.0 mph 33.4 mph N/A   Overcast
6:35 AM 21.2 °F 4.9 °F 14.0 °F 74% 29.52 in 10.0 mi NW 23.0 mph 32.2 mph N/A   Overcast
6:55 AM 21.2 °F 4.2 °F 14.0 °F 74% 29.52 in 10.0 mi NW 25.3 mph 33.4 mph N/A   Overcast
7:15 AM 21.2 °F 3.9 °F 14.0 °F 74% 29.53 in 10.0 mi NW 26.5 mph 36.8 mph N/A   Overcast
7:35 AM 21.2 °F 3.5 °F 14.0 °F 74% 29.53 in 10.0 mi NW 27.6 mph 33.4 mph N/A   Overcast
7:55 AM 21.2 °F 5.6 °F 14.0 °F 74% 29.55 in 10.0 mi NW 20.7 mph 29.9 mph N/A   Overcast
8:15 AM 21.2 °F 4.2 °F 14.0 °F 74% 29.56 in 10.0 mi NW 25.3 mph 33.4 mph N/A   Overcast
8:30 AM 21.2 °F 4.2 °F 14.0 °F 74% 29.56 in 10.0 mi NW 25.3 mph 34.5 mph N/A Snow Light Snow
8:55 AM 21.2 °F 4.5 °F 14.0 °F 74% 29.57 in 10.0 mi NW 24.2 mph 38.0 mph N/A Snow Light Snow
9:15 AM 21.2 °F 4.9 °F 14.0 °F 74% 29.58 in 10.0 mi NW 23.0 mph 36.8 mph N/A Snow Light Snow
9:35 AM 21.2 °F 4.5 °F 14.0 °F 74% 29.59 in 10.0 mi NW 24.2 mph 34.5 mph N/A   Overcast
9:55 AM 21.2 °F 3.3 °F 14.0 °F 74% 29.60 in 10.0 mi NW 28.8 mph 39.1 mph N/A   Overcast
10:15 AM 21.2 °F 3.3 °F 14.0 °F 74% 29.61 in 10.0 mi NW 28.8 mph 36.8 mph N/A Snow Light Snow
10:35 AM 21.2 °F 3.3 °F 14.0 °F 74% 29.61 in 10.0 mi NW 28.8 mph 38.0 mph N/A Snow Light Snow
10:55 AM 21.2 °F 3.3 °F 14.0 °F 74% 29.62 in 10.0 mi NW 28.8 mph 36.8 mph N/A   Overcast
11:15 AM 21.2 °F 3.9 °F 14.0 °F 74% 29.62 in 10.0 mi NW 26.5 mph 35.7 mph N/A   Overcast
11:35 AM 23.0 °F 6.0 °F 14.0 °F 68% 29.63 in 10.0 mi NW 27.6 mph 34.5 mph N/A Snow Light Snow
11:55 AM 23.0 °F 6.6 °F 14.0 °F 68% 29.63 in 10.0 mi NW 25.3 mph 35.7 mph N/A Snow Light Snow
12:15 PM 23.0 °F 5.4 °F 14.0 °F 68% 29.64 in 10.0 mi NW 29.9 mph 38.0 mph N/A Snow Light Snow
12:35 PM 23.0 °F 6.6 °F 14.0 °F 68% 29.64 in 9.0 mi NW 25.3 mph 35.7 mph N/A Snow Light Snow
12:55 PM 23.0 °F 5.7 °F 14.0 °F 68% 29.65 in 10.0 mi WNW 28.8 mph 35.7 mph N/A   Overcast
1:15 PM 23.0 °F 5.7 °F 14.0 °F 68% 29.66 in 10.0 mi NW 28.8 mph 34.5 mph N/A   Overcast
1:35 PM 23.0 °F 5.7 °F 15.8 °F 74% 29.67 in 10.0 mi NW 28.8 mph 35.7 mph N/A   Overcast
1:55 PM 23.0 °F 7.2 °F 15.8 °F 74% 29.69 in 10.0 mi NW 23.0 mph 29.9 mph N/A   Overcast
2:15 PM 23.0 °F 6.6 °F 15.8 °F 74% 29.70 in 10.0 mi WNW 25.3 mph 33.4 mph N/A   Overcast
2:35 PM 23.0 °F 6.0 °F 15.8 °F 74% 29.72 in 10.0 mi NW 27.6 mph 34.5 mph N/A   Overcast
3:15 PM 23.0 °F 8.0 °F 14.0 °F 68% 29.74 in 10.0 mi NW 20.7 mph 40.3 mph N/A   Overcast
3:35 PM 23.0 °F 6.6 °F 14.0 °F 68% 29.75 in 10.0 mi NW 25.3 mph 35.7 mph N/A   Overcast
3:55 PM 23.0 °F 6.3 °F 14.0 °F 68% 29.77 in 10.0 mi NW 26.5 mph 36.8 mph N/A   Overcast
4:15 PM 23.0 °F 5.7 °F 14.0 °F 68% 29.78 in 10.0 mi NW 28.8 mph 36.8 mph N/A   Overcast
4:35 PM 23.0 °F 6.6 °F 14.0 °F 68% 29.79 in - NW 25.3 mph 38.0 mph N/A   Overcast
4:55 PM 23.0 °F 5.7 °F 14.0 °F 68% 29.80 in 10.0 mi NW 28.8 mph - N/A   Overcast
5:35 PM 23.0 °F 6.0 °F 14.0 °F 68% 29.84 in 10.0 mi NW 27.6 mph 36.8 mph N/A   Overcast
5:55 PM 21.2 °F 3.5 °F 14.0 °F 74% 29.85 in 10.0 mi NW 27.6 mph 38.0 mph N/A   Overcast
6:15 PM 21.2 °F 3.9 °F 14.0 °F 74% 29.86 in 10.0 mi NW 26.5 mph 38.0 mph N/A   Overcast
6:35 PM 23.0 °F 7.2 °F 14.0 °F 68% 29.87 in 10.0 mi NW 23.0 mph 34.5 mph N/A   Overcast
6:55 PM 23.0 °F 7.6 °F 14.0 °F 68% 29.89 in 10.0 mi NW 21.9 mph 31.1 mph N/A   Overcast
7:15 PM 23.0 °F 8.3 °F 14.0 °F 68% 29.89 in 10.0 mi NW 19.6 mph 29.9 mph N/A   Overcast
7:35 PM 23.0 °F 7.2 °F 15.8 °F 74% 29.90 in 10.0 mi NW 23.0 mph 33.4 mph N/A   Scattered Clouds
7:55 PM 23.0 °F 6.9 °F 14.0 °F 68% 29.91 in 10.0 mi NW 24.2 mph 29.9 mph N/A   Clear
8:15 PM 23.0 °F 8.7 °F 14.0 °F 68% 29.92 in 10.0 mi NW 18.4 mph 29.9 mph N/A   Clear
8:35 PM 21.2 °F 5.6 °F 14.0 °F 74% 29.93 in 10.0 mi NW 20.7 mph 31.1 mph N/A   Clear
8:55 PM 21.2 °F 4.9 °F 14.0 °F 74% 29.94 in 10.0 mi NW 23.0 mph 28.8 mph N/A   Clear
9:15 PM 21.2 °F 5.6 °F 14.0 °F 74% 29.95 in 10.0 mi NW 20.7 mph 27.6 mph N/A   Clear
9:35 PM 21.2 °F 4.9 °F 14.0 °F 74% 29.95 in 10.0 mi NW 23.0 mph - N/A   Clear
9:55 PM 21.2 °F 6.0 °F 14.0 °F 74% 29.96 in 10.0 mi NW 19.6 mph 31.1 mph N/A   Clear
10:15 PM 21.2 °F 6.4 °F 14.0 °F 74% 29.97 in 10.0 mi NW 18.4 mph 27.6 mph N/A   Clear
10:35 PM 19.4 °F 4.1 °F 14.0 °F 80% 29.97 in 10.0 mi NW 18.4 mph 27.6 mph N/A   Clear
10:55 PM 19.4 °F 3.6 °F 12.2 °F 74% 29.98 in 10.0 mi NW 19.6 mph - N/A   Clear
11:15 PM 19.4 °F 5.5 °F 12.2 °F 74% 30.00 in 10.0 mi NW 15.0 mph 21.9 mph N/A   Clear
11:35 PM 19.4 °F 4.5 °F 12.2 °F 74% 30.01 in 10.0 mi NW 17.3 mph - N/A   Clear
11:55 PM 17.6 °F 3.7 °F 12.2 °F 79% 30.01 in 10.0 mi NW 13.8 mph 19.6 mph N/A   Clear